createdAt,value
2022-08-20T00:00:09.653Z,39.30
2022-08-20T00:06:25.006Z,38.50
2022-08-20T00:12:38.511Z,38.50
2022-08-20T00:18:51.022Z,38.20
2022-08-20T00:25:05.265Z,38.30
2022-08-20T00:31:20.178Z,38.40
2022-08-20T00:37:35.237Z,38.00
2022-08-20T00:43:48.785Z,38.00
2022-08-20T00:50:01.090Z,37.90
2022-08-20T00:56:14.726Z,37.70
2022-08-20T01:02:27.836Z,37.50
2022-08-20T01:08:42.330Z,38.10
2022-08-20T01:14:55.223Z,38.40
2022-08-20T01:21:08.855Z,37.80
2022-08-20T01:27:23.418Z,37.40
2022-08-20T01:33:40.809Z,37.00
2022-08-20T01:39:53.798Z,36.80
2022-08-20T01:46:04.802Z,36.50
2022-08-20T01:52:16.914Z,36.40
2022-08-20T01:58:29.676Z,36.20
2022-08-20T02:04:44.196Z,36.00
2022-08-20T02:10:58.458Z,35.90
2022-08-20T02:17:13.131Z,35.80
2022-08-20T02:23:25.904Z,35.80
2022-08-20T02:29:40.392Z,35.70
2022-08-20T02:35:54.534Z,36.20
2022-08-20T02:42:09.354Z,35.50
2022-08-20T02:48:26.081Z,36.00
2022-08-20T02:54:39.391Z,35.60
2022-08-20T03:00:52.423Z,35.80
2022-08-20T03:07:06.737Z,35.70
2022-08-20T03:13:17.970Z,35.50
2022-08-20T03:19:29.438Z,35.50
2022-08-20T03:25:44.919Z,35.40
2022-08-20T03:31:58.940Z,35.40
2022-08-20T03:38:13.749Z,35.30
2022-08-20T03:44:27.396Z,35.30
2022-08-20T03:50:40.132Z,35.20
2022-08-20T03:56:55.150Z,35.00
2022-08-20T04:03:07.613Z,35.00
2022-08-20T04:09:21.182Z,35.20
2022-08-20T04:15:34.248Z,35.00
2022-08-20T04:21:47.272Z,35.00
2022-08-20T04:28:01.543Z,35.00
2022-08-20T04:34:14.531Z,34.90
2022-08-20T04:40:40.659Z,34.80
2022-08-20T04:46:54.864Z,35.00
2022-08-20T04:53:09.198Z,35.20
2022-08-20T04:59:24.222Z,35.20
2022-08-20T05:05:36.072Z,35.10
2022-08-20T05:11:50.416Z,35.20
2022-08-20T05:18:06.445Z,35.10
2022-08-20T05:24:19.145Z,35.10
2022-08-20T05:30:36.236Z,35.00
2022-08-20T05:36:50.505Z,34.80
2022-08-20T05:43:06.251Z,34.80
2022-08-20T05:49:20.237Z,35.40
2022-08-20T05:55:30.778Z,35.50
2022-08-20T06:01:46.390Z,35.60
2022-08-20T06:08:07.159Z,35.70
2022-08-20T06:14:14.538Z,36.00
2022-08-20T06:20:25.918Z,36.10
2022-08-20T06:26:40.102Z,36.20
2022-08-20T06:32:55.066Z,36.60
2022-08-20T06:39:09.306Z,35.70
2022-08-20T06:45:22.718Z,35.50
2022-08-20T06:51:36.754Z,36.10
2022-08-20T06:57:50.876Z,36.20
2022-08-20T07:04:02.868Z,36.20
2022-08-20T07:10:20.338Z,36.10
2022-08-20T07:16:34.608Z,36.10
2022-08-20T07:22:47.021Z,36.10
2022-08-20T07:29:01.388Z,36.80
2022-08-20T07:35:17.708Z,37.10
2022-08-20T07:41:31.564Z,37.20
2022-08-20T07:47:41.243Z,37.60
2022-08-20T07:53:55.688Z,37.40
2022-08-20T08:00:08.948Z,37.40
2022-08-20T08:06:29.518Z,38.30
2022-08-20T08:12:40.830Z,38.30
2022-08-20T08:18:57.773Z,38.40
2022-08-20T08:25:12.656Z,38.30
2022-08-20T08:31:25.026Z,38.40
2022-08-20T08:37:40.149Z,39.00
2022-08-20T08:43:54.931Z,39.40
2022-08-20T08:50:07.977Z,38.80
2022-08-20T08:56:22.540Z,38.80
2022-08-20T09:02:34.840Z,38.80
2022-08-20T09:08:50.263Z,39.10
2022-08-20T09:15:03.857Z,39.00
2022-08-20T09:21:16.976Z,39.00
2022-08-20T09:27:30.983Z,39.00
2022-08-20T09:33:44.964Z,39.20
2022-08-20T09:39:59.389Z,39.30
2022-08-20T09:46:10.560Z,39.30
2022-08-20T09:52:27.024Z,39.30
2022-08-20T09:58:43.308Z,39.20
2022-08-20T10:04:56.318Z,39.30
2022-08-20T10:11:09.192Z,39.60
2022-08-20T10:17:23.180Z,39.50
2022-08-20T10:23:35.633Z,39.50
2022-08-20T10:29:47.977Z,39.60
2022-08-20T10:36:02.091Z,39.50
2022-08-20T10:42:16.548Z,39.90
2022-08-20T10:48:30.449Z,39.70
2022-08-20T10:54:44.697Z,39.70
2022-08-20T11:00:58.886Z,39.70
2022-08-20T11:07:23.094Z,39.90
2022-08-20T11:13:37.252Z,40.20
2022-08-20T11:19:52.385Z,39.90
2022-08-20T11:26:06.473Z,39.80
2022-08-20T11:32:20.454Z,39.90
2022-08-20T11:38:34.472Z,40.20
2022-08-20T11:44:47.370Z,40.30
2022-08-20T11:50:58.361Z,40.10
2022-08-20T11:57:13.687Z,39.90
2022-08-20T12:03:27.629Z,39.80
2022-08-20T12:09:50.717Z,40.30
2022-08-20T12:15:57.233Z,39.60
2022-08-20T12:22:21.375Z,39.70
2022-08-20T12:28:27.280Z,39.60
2022-08-20T12:34:41.669Z,39.60
2022-08-20T12:40:55.764Z,39.80
2022-08-20T12:47:18.263Z,39.80
2022-08-20T12:53:32.269Z,39.70
2022-08-20T12:59:48.046Z,39.70
2022-08-20T13:06:02.793Z,39.80
2022-08-20T13:12:18.618Z,39.90
2022-08-20T13:18:34.636Z,40.20
2022-08-20T13:24:49.090Z,40.20
2022-08-20T13:30:58.439Z,40.30
2022-08-20T13:37:15.017Z,40.00
2022-08-20T13:43:25.565Z,40.10
2022-08-20T13:49:38.026Z,39.90
2022-08-20T13:55:55.768Z,39.90
2022-08-20T14:02:09.926Z,39.70
2022-08-20T14:08:23.342Z,39.70
2022-08-20T14:14:36.250Z,39.70
2022-08-20T14:20:47.654Z,39.70
2022-08-20T14:27:02.495Z,40.10
2022-08-20T14:33:16.722Z,40.10
2022-08-20T14:39:26.320Z,40.30
2022-08-20T14:45:40.949Z,40.10
2022-08-20T14:51:53.271Z,40.30
2022-08-20T15:19:07.660Z,40.60
2022-08-20T15:25:22.244Z,40.30
2022-08-20T15:31:34.396Z,40.30
2022-08-20T15:37:50.404Z,40.30
2022-08-20T15:44:05.220Z,40.10
2022-08-20T15:50:18.739Z,40.10
2022-08-20T15:56:50.450Z,40.00
2022-08-20T16:03:13.708Z,40.00
2022-08-20T16:09:35.122Z,40.10
2022-08-20T16:15:49.673Z,39.90
2022-08-20T16:22:05.055Z,39.80
2022-08-20T16:28:23.509Z,39.80
2022-08-20T16:34:41.647Z,39.90
2022-08-20T16:40:56.231Z,40.20
2022-08-20T16:47:13.943Z,40.10
2022-08-20T16:53:28.273Z,40.00
2022-08-20T16:59:41.644Z,40.00
2022-08-20T17:05:58.565Z,40.10
2022-08-20T17:12:26.541Z,40.10
2022-08-20T17:18:41.006Z,40.60
2022-08-20T17:24:56.252Z,40.00
2022-08-20T17:31:14.603Z,39.90
2022-08-20T17:37:28.548Z,40.10
2022-08-20T17:43:43.648Z,39.90
2022-08-20T17:50:03.261Z,39.80
2022-08-20T17:56:21.844Z,39.80
2022-08-20T18:02:35.668Z,39.90
2022-08-20T18:08:49.409Z,40.00
2022-08-20T18:15:07.573Z,39.70
2022-08-20T18:28:16.598Z,39.80
2022-08-20T18:34:31.508Z,40.10
2022-08-20T18:40:45.651Z,39.80
2022-08-20T18:47:00.253Z,39.70
2022-08-20T18:53:17.125Z,39.70
2022-08-20T18:59:27.605Z,39.60
2022-08-20T19:05:42.888Z,40.10
2022-08-20T19:12:06.639Z,39.90
2022-08-20T19:18:20.858Z,39.70
2022-08-20T19:24:43.201Z,39.90
2022-08-20T19:30:53.798Z,39.90
2022-08-20T19:37:35.571Z,40.20
2022-08-20T19:43:26.823Z,40.00
2022-08-20T19:49:37.324Z,39.90
2022-08-20T19:55:52.681Z,39.90
2022-08-20T20:02:21.364Z,40.10
2022-08-20T20:08:24.623Z,40.20
2022-08-20T20:14:39.881Z,40.10
2022-08-20T20:20:57.205Z,40.00
2022-08-20T20:27:08.600Z,39.80
2022-08-20T20:33:21.994Z,39.50
2022-08-20T20:39:37.371Z,39.10
2022-08-20T20:45:49.537Z,39.00
2022-08-20T20:52:03.055Z,39.80
2022-08-20T20:58:13.877Z,39.40
2022-08-20T21:04:27.115Z,39.20
2022-08-20T21:10:38.878Z,39.10
2022-08-20T21:16:48.926Z,39.10
2022-08-20T21:22:59.578Z,39.90
2022-08-20T21:29:11.552Z,39.80
2022-08-20T21:35:22.504Z,39.70
2022-08-20T21:41:33.411Z,39.60
2022-08-20T21:47:45.172Z,39.20
2022-08-20T21:53:57.325Z,39.00
2022-08-20T22:00:11.334Z,38.50
2022-08-20T22:06:22.354Z,38.50
2022-08-20T22:12:32.072Z,38.60
2022-08-20T22:18:41.078Z,38.60
2022-08-20T22:24:55.115Z,38.90
2022-08-20T22:31:04.876Z,38.90
2022-08-20T22:37:12.148Z,38.40
2022-08-20T22:43:25.603Z,38.60
2022-08-20T22:49:37.327Z,38.60
2022-08-20T22:55:45.706Z,38.80
2022-08-20T23:01:55.370Z,38.90
2022-08-20T23:08:02.657Z,38.50
2022-08-20T23:14:13.449Z,38.70
2022-08-20T23:20:25.863Z,39.00
2022-08-20T23:26:36.631Z,38.80
2022-08-20T23:32:49.911Z,39.20
2022-08-20T23:39:02.339Z,38.50
2022-08-20T23:45:13.588Z,38.20
2022-08-20T23:51:26.601Z,38.30
2022-08-20T23:57:35.845Z,37.80
